sensor_id;sensor_type;location;lat;lon;timestamp;P1;durP1;ratioP1;P2;durP2;ratioP2
20314;SDS011;10315;50.958;13.080;2022-11-20T00:05:25;22.07;;;10.23;;
20314;SDS011;10315;50.958;13.080;2022-11-20T00:15:28;27.70;;;10.53;;
20314;SDS011;10315;50.958;13.080;2022-11-20T00:25:30;36.33;;;9.60;;
20314;SDS011;10315;50.958;13.080;2022-11-20T00:35:33;24.23;;;8.70;;
20314;SDS011;10315;50.958;13.080;2022-11-20T00:45:35;12.57;;;6.03;;
20314;SDS011;10315;50.958;13.080;2022-11-20T00:55:45;35.57;;;10.80;;
20314;SDS011;10315;50.958;13.080;2022-11-20T01:05:54;20.93;;;8.40;;
20314;SDS011;10315;50.958;13.080;2022-11-20T01:16:03;18.77;;;8.17;;
20314;SDS011;10315;50.958;13.080;2022-11-20T01:26:07;20.93;;;8.57;;
20314;SDS011;10315;50.958;13.080;2022-11-20T01:36:21;20.13;;;9.33;;
20314;SDS011;10315;50.958;13.080;2022-11-20T01:46:25;21.93;;;8.17;;
20314;SDS011;10315;50.958;13.080;2022-11-20T01:56:28;26.37;;;10.93;;
20314;SDS011;10315;50.958;13.080;2022-11-20T02:06:32;23.03;;;7.20;;
20314;SDS011;10315;50.958;13.080;2022-11-20T02:16:45;24.90;;;8.87;;
20314;SDS011;10315;50.958;13.080;2022-11-20T02:26:51;21.63;;;9.10;;
20314;SDS011;10315;50.958;13.080;2022-11-20T02:36:56;17.07;;;8.23;;
20314;SDS011;10315;50.958;13.080;2022-11-20T02:47:00;21.37;;;7.97;;
20314;SDS011;10315;50.958;13.080;2022-11-20T02:57:01;25.40;;;8.00;;
20314;SDS011;10315;50.958;13.080;2022-11-20T03:07:12;16.50;;;7.03;;
20314;SDS011;10315;50.958;13.080;2022-11-20T03:17:14;16.73;;;6.07;;
20314;SDS011;10315;50.958;13.080;2022-11-20T03:27:19;17.50;;;7.40;;
20314;SDS011;10315;50.958;13.080;2022-11-20T03:37:21;19.07;;;5.80;;
20314;SDS011;10315;50.958;13.080;2022-11-20T03:47:27;14.43;;;6.10;;
20314;SDS011;10315;50.958;13.080;2022-11-20T03:57:29;17.17;;;6.10;;
20314;SDS011;10315;50.958;13.080;2022-11-20T04:07:33;16.20;;;4.90;;
20314;SDS011;10315;50.958;13.080;2022-11-20T04:17:35;9.27;;;4.27;;
20314;SDS011;10315;50.958;13.080;2022-11-20T04:27:41;15.80;;;6.83;;
20314;SDS011;10315;50.958;13.080;2022-11-20T04:37:43;13.63;;;6.40;;
20314;SDS011;10315;50.958;13.080;2022-11-20T04:47:47;13.90;;;5.70;;
20314;SDS011;10315;50.958;13.080;2022-11-20T04:57:49;11.20;;;5.57;;
20314;SDS011;10315;50.958;13.080;2022-11-20T05:07:52;14.83;;;5.53;;
20314;SDS011;10315;50.958;13.080;2022-11-20T05:17:56;12.23;;;4.47;;
20314;SDS011;10315;50.958;13.080;2022-11-20T05:27:59;14.77;;;6.20;;
20314;SDS011;10315;50.958;13.080;2022-11-20T05:38:01;12.53;;;5.17;;
20314;SDS011;10315;50.958;13.080;2022-11-20T05:48:04;31.93;;;12.43;;
20314;SDS011;10315;50.958;13.080;2022-11-20T05:58:06;22.97;;;7.30;;
20314;SDS011;10315;50.958;13.080;2022-11-20T06:08:09;10.53;;;5.33;;
20314;SDS011;10315;50.958;13.080;2022-11-20T06:18:11;20.67;;;7.50;;
20314;SDS011;10315;50.958;13.080;2022-11-20T06:28:14;17.33;;;6.53;;
20314;SDS011;10315;50.958;13.080;2022-11-20T06:38:18;17.37;;;5.90;;
20314;SDS011;10315;50.958;13.080;2022-11-20T06:48:21;15.87;;;6.20;;
20314;SDS011;10315;50.958;13.080;2022-11-20T06:58:25;16.37;;;6.57;;
20314;SDS011;10315;50.958;13.080;2022-11-20T07:08:30;15.30;;;5.93;;
20314;SDS011;10315;50.958;13.080;2022-11-20T07:18:32;19.13;;;6.70;;
20314;SDS011;10315;50.958;13.080;2022-11-20T07:28:35;13.97;;;6.30;;
20314;SDS011;10315;50.958;13.080;2022-11-20T07:38:37;16.20;;;6.67;;
20314;SDS011;10315;50.958;13.080;2022-11-20T07:48:40;12.47;;;6.10;;
20314;SDS011;10315;50.958;13.080;2022-11-20T07:58:42;17.83;;;7.23;;
20314;SDS011;10315;50.958;13.080;2022-11-20T08:08:45;6.10;;;3.40;;
20314;SDS011;10315;50.958;13.080;2022-11-20T08:18:48;13.30;;;6.03;;
20314;SDS011;10315;50.958;13.080;2022-11-20T08:28:57;14.70;;;6.47;;
20314;SDS011;10315;50.958;13.080;2022-11-20T08:38:59;15.70;;;6.50;;
20314;SDS011;10315;50.958;13.080;2022-11-20T08:49:03;8.73;;;3.77;;
20314;SDS011;10315;50.958;13.080;2022-11-20T08:59:06;22.40;;;7.47;;
20314;SDS011;10315;50.958;13.080;2022-11-20T09:09:09;15.10;;;7.33;;
20314;SDS011;10315;50.958;13.080;2022-11-20T09:19:11;17.67;;;7.57;;
20314;SDS011;10315;50.958;13.080;2022-11-20T09:29:14;16.00;;;6.40;;
20314;SDS011;10315;50.958;13.080;2022-11-20T09:39:16;15.03;;;7.40;;
20314;SDS011;10315;50.958;13.080;2022-11-20T09:49:22;13.23;;;6.53;;
20314;SDS011;10315;50.958;13.080;2022-11-20T09:59:35;14.47;;;7.23;;
20314;SDS011;10315;50.958;13.080;2022-11-20T10:09:43;9.60;;;4.90;;
20314;SDS011;10315;50.958;13.080;2022-11-20T10:19:54;14.80;;;6.07;;
20314;SDS011;10315;50.958;13.080;2022-11-20T10:30:09;12.93;;;6.00;;
20314;SDS011;10315;50.958;13.080;2022-11-20T10:40:18;14.43;;;6.80;;
20314;SDS011;10315;50.958;13.080;2022-11-20T10:50:24;22.00;;;8.70;;
20314;SDS011;10315;50.958;13.080;2022-11-20T11:00:31;14.70;;;6.93;;
20314;SDS011;10315;50.958;13.080;2022-11-20T11:10:36;13.40;;;5.50;;
20314;SDS011;10315;50.958;13.080;2022-11-20T11:20:49;22.23;;;8.67;;
20314;SDS011;10315;50.958;13.080;2022-11-20T11:30:53;15.73;;;6.73;;
20314;SDS011;10315;50.958;13.080;2022-11-20T11:40:55;22.27;;;8.10;;
20314;SDS011;10315;50.958;13.080;2022-11-20T11:50:59;19.50;;;8.20;;
20314;SDS011;10315;50.958;13.080;2022-11-20T12:01:03;23.57;;;7.73;;
20314;SDS011;10315;50.958;13.080;2022-11-20T12:11:16;30.30;;;15.80;;
20314;SDS011;10315;50.958;13.080;2022-11-20T12:21:33;13.30;;;6.20;;
20314;SDS011;10315;50.958;13.080;2022-11-20T12:31:52;19.30;;;8.20;;
20314;SDS011;10315;50.958;13.080;2022-11-20T12:52:54;23.27;;;8.50;;
20314;SDS011;10315;50.958;13.080;2022-11-20T13:03:01;21.37;;;8.57;;
20314;SDS011;10315;50.958;13.080;2022-11-20T13:13:31;22.13;;;8.23;;
20314;SDS011;10315;50.958;13.080;2022-11-20T13:23:41;19.37;;;7.57;;
20314;SDS011;10315;50.958;13.080;2022-11-20T13:33:44;14.73;;;7.13;;
20314;SDS011;10315;50.958;13.080;2022-11-20T13:43:51;21.30;;;8.77;;
20314;SDS011;10315;50.958;13.080;2022-11-20T13:53:59;22.77;;;9.23;;
20314;SDS011;10315;50.958;13.080;2022-11-20T14:04:15;19.03;;;8.23;;
20314;SDS011;10315;50.958;13.080;2022-11-20T14:14:24;19.47;;;8.97;;
20314;SDS011;10315;50.958;13.080;2022-11-20T14:24:27;20.37;;;8.40;;
20314;SDS011;10315;50.958;13.080;2022-11-20T14:34:33;19.90;;;8.03;;
20314;SDS011;10315;50.958;13.080;2022-11-20T14:44:40;17.90;;;7.97;;
20314;SDS011;10315;50.958;13.080;2022-11-20T14:54:44;18.07;;;7.67;;
20314;SDS011;10315;50.958;13.080;2022-11-20T15:04:47;20.07;;;8.57;;
20314;SDS011;10315;50.958;13.080;2022-11-20T15:14:51;20.03;;;8.57;;
20314;SDS011;10315;50.958;13.080;2022-11-20T15:24:53;26.67;;;13.33;;
20314;SDS011;10315;50.958;13.080;2022-11-20T15:34:56;19.83;;;8.53;;
20314;SDS011;10315;50.958;13.080;2022-11-20T15:44:58;22.50;;;8.00;;
20314;SDS011;10315;50.958;13.080;2022-11-20T15:55:01;23.93;;;10.03;;
20314;SDS011;10315;50.958;13.080;2022-11-20T16:05:09;25.60;;;9.53;;
20314;SDS011;10315;50.958;13.080;2022-11-20T16:15:14;24.70;;;9.17;;
20314;SDS011;10315;50.958;13.080;2022-11-20T16:25:41;19.33;;;8.60;;
20314;SDS011;10315;50.958;13.080;2022-11-20T16:35:45;21.93;;;10.17;;
20314;SDS011;10315;50.958;13.080;2022-11-20T16:45:46;21.70;;;8.77;;
20314;SDS011;10315;50.958;13.080;2022-11-20T16:55:49;55.83;;;26.97;;
20314;SDS011;10315;50.958;13.080;2022-11-20T17:05:51;27.67;;;11.40;;
20314;SDS011;10315;50.958;13.080;2022-11-20T17:15:54;30.50;;;11.57;;
20314;SDS011;10315;50.958;13.080;2022-11-20T17:26:02;26.10;;;11.50;;
20314;SDS011;10315;50.958;13.080;2022-11-20T17:36:09;26.07;;;10.33;;
20314;SDS011;10315;50.958;13.080;2022-11-20T17:46:12;32.37;;;12.67;;
20314;SDS011;10315;50.958;13.080;2022-11-20T17:56:16;30.50;;;14.10;;
20314;SDS011;10315;50.958;13.080;2022-11-20T18:06:36;36.20;;;12.43;;
20314;SDS011;10315;50.958;13.080;2022-11-20T18:16:40;28.43;;;11.90;;
20314;SDS011;10315;50.958;13.080;2022-11-20T18:26:43;33.50;;;14.07;;
20314;SDS011;10315;50.958;13.080;2022-11-20T18:36:46;28.27;;;12.60;;
20314;SDS011;10315;50.958;13.080;2022-11-20T18:46:48;68.83;;;25.80;;
20314;SDS011;10315;50.958;13.080;2022-11-20T18:56:51;37.63;;;15.90;;
20314;SDS011;10315;50.958;13.080;2022-11-20T19:06:53;46.97;;;19.47;;
20314;SDS011;10315;50.958;13.080;2022-11-20T19:16:56;53.73;;;20.63;;
20314;SDS011;10315;50.958;13.080;2022-11-20T19:26:58;33.07;;;13.33;;
20314;SDS011;10315;50.958;13.080;2022-11-20T19:37:01;48.07;;;17.47;;
20314;SDS011;10315;50.958;13.080;2022-11-20T19:47:04;48.03;;;18.10;;
20314;SDS011;10315;50.958;13.080;2022-11-20T19:57:12;40.00;;;14.07;;
20314;SDS011;10315;50.958;13.080;2022-11-20T20:07:13;31.17;;;13.23;;
20314;SDS011;10315;50.958;13.080;2022-11-20T20:17:17;36.80;;;13.20;;
20314;SDS011;10315;50.958;13.080;2022-11-20T20:27:19;39.87;;;15.30;;
20314;SDS011;10315;50.958;13.080;2022-11-20T20:37:22;29.77;;;11.30;;
20314;SDS011;10315;50.958;13.080;2022-11-20T20:47:28;28.57;;;10.83;;
20314;SDS011;10315;50.958;13.080;2022-11-20T20:57:31;18.97;;;9.60;;
20314;SDS011;10315;50.958;13.080;2022-11-20T21:07:33;25.77;;;10.53;;
20314;SDS011;10315;50.958;13.080;2022-11-20T21:17:56;26.83;;;10.70;;
20314;SDS011;10315;50.958;13.080;2022-11-20T21:27:58;32.47;;;12.13;;
20314;SDS011;10315;50.958;13.080;2022-11-20T21:38:01;26.17;;;10.53;;
20314;SDS011;10315;50.958;13.080;2022-11-20T21:48:03;24.77;;;10.27;;
20314;SDS011;10315;50.958;13.080;2022-11-20T21:58:09;27.77;;;11.27;;
20314;SDS011;10315;50.958;13.080;2022-11-20T22:08:11;26.57;;;11.57;;
20314;SDS011;10315;50.958;13.080;2022-11-20T22:18:14;32.63;;;13.47;;
20314;SDS011;10315;50.958;13.080;2022-11-20T22:28:17;38.97;;;15.80;;
20314;SDS011;10315;50.958;13.080;2022-11-20T22:38:22;39.73;;;16.67;;
20314;SDS011;10315;50.958;13.080;2022-11-20T22:48:25;36.17;;;14.47;;
20314;SDS011;10315;50.958;13.080;2022-11-20T22:58:29;35.07;;;14.77;;
20314;SDS011;10315;50.958;13.080;2022-11-20T23:08:31;39.90;;;14.87;;
20314;SDS011;10315;50.958;13.080;2022-11-20T23:18:35;31.70;;;13.70;;
20314;SDS011;10315;50.958;13.080;2022-11-20T23:28:37;37.03;;;15.03;;
20314;SDS011;10315;50.958;13.080;2022-11-20T23:38:41;43.40;;;16.53;;
20314;SDS011;10315;50.958;13.080;2022-11-20T23:48:43;33.80;;;13.03;;
20314;SDS011;10315;50.958;13.080;2022-11-20T23:58:46;33.47;;;12.30;;
